首页
METAR-TAF:

METAR-TAF

机场 :

金蘭國際機場

金蘭市, 越南

纬度: 11-59-53N, 经度: 109-13-10E, 海拔: 12米

当前天气观测

该预报发布于23分钟前的05:30 UTC
风速12节,风向,在南转南东西南之间变化
温度 36°C
湿度 45%
气压 1007 hPa
能见度10公里或以上
1500米以下无云,无积雨云

METAR: VVCR 230530Z 17012KT 150V220 CAVOK 36/22 Q1007 NOSIG

时间: 12:53 (05:53 UTC)

预报

该预报发布于53分钟前的05:00 UTC
预报有效从23日的 06点(UTC)到 24日的 06点(UTC)
风速12节,风向西南
能见度10公里或以上
少量云层高于1700英尺
短暂存在
从 23日的 08点(UTC)到 23日的 11点(UTC)
风速15节,风向南转西南,有时为25节阵风
散云层高于1500英尺
少量云层高于1700英尺, 积雨云.
散云层高于6000英尺
雷暴,

TAF: VVCR 230500Z 2306/2406 22012KT 9999 FEW017 TEMPO 2308/2311 20015G25KT TS SCT015 FEW017CB SCT060

超过4000个机场的气象观测和天气预报(METAR&TAF报告)。

可查询的气象台以黄色和红色小点在地图上表示。

将鼠标移到小点上方,可查看气象台名称。

然后点击查看天气观测和预报。

如需切换地图:点击带黑十字的绿色按钮放大地图;点击带横线的绿色按钮缩小地图;或者点击绿色箭头查看邻近地区的地图。


METAR-TAF: